createdAt,value
2022-08-11T00:02:05.375Z,12.03
2022-08-11T00:04:45.626Z,11.95
2022-08-11T00:07:17.495Z,11.95
2022-08-11T00:09:47.993Z,11.91
2022-08-11T00:12:20.115Z,11.87
2022-08-11T00:14:59.005Z,11.84
2022-08-11T00:17:32.755Z,11.81
2022-08-11T00:20:11.914Z,11.88
2022-08-11T00:22:50.275Z,11.88
2022-08-11T00:25:23.443Z,11.82
2022-08-11T00:27:54.328Z,11.89
2022-08-11T00:30:24.864Z,11.86
2022-08-11T00:32:59.303Z,11.84
2022-08-11T00:35:54.281Z,11.77
2022-08-11T00:38:31.539Z,11.74
2022-08-11T00:41:09.455Z,11.71
2022-08-11T00:44:05.205Z,11.68
2022-08-11T00:46:48.121Z,11.64
2022-08-11T00:49:27.753Z,11.65
2022-08-11T00:52:10.566Z,11.66
2022-08-11T00:55:35.117Z,11.66
2022-08-11T00:58:51.060Z,11.65
2022-08-11T01:01:37.013Z,11.58
2022-08-11T01:04:49.428Z,11.56
2022-08-11T01:08:02.674Z,11.44
2022-08-11T01:11:12.413Z,11.43
2022-08-11T01:14:34.246Z,11.41
2022-08-11T01:17:30.563Z,11.37
2022-08-11T01:20:45.454Z,11.32
2022-08-11T01:23:50.363Z,11.29
2022-08-11T01:27:20.183Z,11.25
2022-08-11T01:30:19.504Z,11.22
2022-08-11T01:33:51.714Z,11.18
2022-08-11T01:37:02.635Z,11.15
2022-08-11T01:40:06.301Z,11.27
2022-08-11T01:43:26.902Z,11.34
2022-08-11T01:46:03.494Z,11.29
2022-08-11T01:48:43.002Z,11.26
2022-08-11T01:51:45.076Z,11.26
2022-08-11T01:54:22.363Z,11.29
2022-08-11T01:57:10.003Z,11.23
2022-08-11T01:59:50.085Z,11.16
2022-08-11T02:02:48.344Z,11.12
2022-08-11T02:05:49.095Z,11.06
2022-08-11T02:08:35.954Z,11.02
2022-08-11T02:11:35.507Z,10.95
2022-08-11T02:14:23.555Z,10.93
2022-08-11T02:17:17.115Z,10.92
2022-08-11T02:20:13.595Z,10.89
2022-08-11T02:23:11.206Z,10.97
2022-08-11T02:25:48.515Z,10.90
2022-08-11T02:28:29.335Z,10.86
2022-08-11T02:32:14.234Z,10.91
2022-08-11T02:34:34.617Z,10.88
2022-08-11T02:37:23.526Z,10.82
2022-08-11T02:40:11.128Z,10.78
2022-08-11T02:42:53.631Z,10.88
2022-08-11T02:45:49.388Z,10.89
2022-08-11T02:48:52.747Z,10.79
2022-08-11T02:51:32.169Z,10.77
2022-08-11T02:54:16.927Z,10.74
2022-08-11T02:56:56.511Z,10.75
2022-08-11T02:59:52.627Z,10.77
2022-08-11T03:03:07.988Z,10.68
2022-08-11T03:05:55.932Z,10.67
2022-08-11T03:08:52.808Z,10.67
2022-08-11T03:11:58.044Z,10.80
2022-08-11T03:14:50.571Z,10.80
2022-08-11T03:17:33.850Z,10.80
2022-08-11T03:20:33.079Z,10.78
2022-08-11T03:23:20.544Z,10.81
2022-08-11T03:25:59.723Z,10.82
2022-08-11T03:28:35.842Z,10.73
2022-08-11T03:31:25.260Z,10.75
2022-08-11T03:34:06.857Z,10.84
2022-08-11T03:37:17.913Z,10.88
2022-08-11T03:40:01.359Z,10.83
2022-08-11T03:42:43.315Z,10.79
2022-08-11T03:45:30.562Z,10.75
2022-08-11T03:48:14.252Z,10.79
2022-08-11T03:51:09.926Z,10.80
2022-08-11T03:54:05.605Z,10.79
2022-08-11T03:57:10.273Z,10.77
2022-08-11T04:00:10.614Z,10.75
2022-08-11T04:03:19.754Z,10.80
2022-08-11T04:06:33.923Z,10.85
2022-08-11T04:09:46.895Z,10.85
2022-08-11T04:12:47.624Z,10.99
2022-08-11T04:16:11.728Z,11.27
2022-08-11T04:19:16.040Z,11.52
2022-08-11T04:22:30.641Z,11.66
2022-08-11T04:25:17.898Z,12.05
2022-08-11T04:28:28.988Z,12.27
2022-08-11T04:31:51.320Z,12.38
2022-08-11T04:34:40.640Z,12.47
2022-08-11T04:37:36.508Z,12.70
2022-08-11T04:40:44.958Z,12.89
2022-08-11T04:44:05.879Z,13.00
2022-08-11T04:48:03.638Z,13.04
2022-08-11T04:51:41.784Z,12.92
2022-08-11T05:05:56.916Z,13.24
2022-08-11T05:22:33.486Z,14.82
2022-08-11T05:26:47.045Z,14.76
2022-08-11T05:46:40.956Z,16.36
2022-08-11T05:50:31.073Z,17.04
2022-08-11T05:53:54.504Z,17.04
2022-08-11T06:00:32.832Z,17.38
2022-08-11T06:03:58.243Z,17.52
2022-08-11T06:07:22.533Z,18.01
2022-08-11T06:10:18.916Z,18.20
2022-08-11T06:12:56.621Z,18.76
2022-08-11T06:15:32.965Z,19.17
2022-08-11T06:18:20.037Z,19.33
2022-08-11T06:20:54.474Z,19.31
2022-08-11T06:23:27.004Z,19.51
2022-08-11T06:26:02.034Z,19.71
2022-08-11T06:28:37.094Z,19.83
2022-08-11T06:31:16.954Z,19.84
2022-08-11T06:34:27.653Z,19.95
2022-08-11T06:37:12.004Z,20.09
2022-08-11T06:39:51.657Z,20.22
2022-08-11T06:42:45.692Z,20.28
2022-08-11T06:45:34.969Z,20.21
2022-08-11T06:48:10.623Z,20.71
2022-08-11T06:51:06.984Z,20.68
2022-08-11T06:54:03.082Z,21.07
2022-08-11T07:00:06.485Z,21.31
2022-08-11T07:02:45.914Z,21.67
2022-08-11T07:05:24.414Z,21.63
2022-08-11T07:08:48.932Z,21.55
2022-08-11T07:12:13.592Z,21.53
2022-08-11T07:15:12.174Z,21.96
2022-08-11T07:18:14.282Z,22.52
2022-08-11T07:22:01.200Z,22.35
2022-08-11T07:25:01.783Z,22.45
2022-08-11T07:27:56.522Z,22.38
2022-08-11T07:30:31.774Z,22.59
2022-08-11T07:33:19.032Z,22.57
2022-08-11T07:36:09.837Z,23.29
2022-08-11T07:38:52.342Z,23.10
2022-08-11T07:41:31.005Z,23.29
2022-08-11T07:44:18.154Z,23.26
2022-08-11T07:47:17.590Z,23.08
2022-08-11T07:50:12.147Z,22.85
2022-08-11T07:52:53.963Z,23.09
2022-08-11T07:55:51.080Z,23.10
2022-08-11T07:58:45.481Z,23.63
2022-08-11T08:01:42.554Z,23.69
2022-08-11T08:04:38.929Z,23.78
2022-08-11T08:07:30.193Z,23.24
2022-08-11T08:10:28.978Z,22.76
2022-08-11T08:13:25.982Z,22.90
2022-08-11T08:16:18.558Z,23.01
2022-08-11T08:18:57.802Z,22.61
2022-08-11T08:21:40.213Z,23.10
2022-08-11T08:24:20.524Z,23.15
2022-08-11T08:27:08.354Z,23.33
2022-08-11T08:30:07.292Z,23.35
2022-08-11T08:32:48.553Z,23.57
2022-08-11T08:35:25.857Z,23.92
2022-08-11T08:38:47.348Z,24.34
2022-08-11T08:41:26.570Z,23.64
2022-08-11T08:47:13.752Z,23.30
2022-08-11T08:49:52.394Z,23.72
2022-08-11T08:52:38.696Z,23.39
2022-08-11T08:55:26.574Z,24.04
2022-08-11T08:58:09.416Z,24.17
2022-08-11T09:00:46.611Z,24.51
2022-08-11T09:04:02.896Z,23.90
2022-08-11T09:06:27.922Z,23.52
2022-08-11T09:09:05.103Z,23.99
2022-08-11T09:11:53.948Z,24.27
2022-08-11T09:14:46.811Z,24.15
2022-08-11T09:17:28.539Z,24.71
2022-08-11T09:20:12.034Z,24.91
2022-08-11T09:26:30.783Z,25.31
2022-08-11T09:29:10.222Z,25.45
2022-08-11T09:31:51.692Z,25.39
2022-08-11T09:34:30.285Z,24.99
2022-08-11T09:37:54.484Z,24.77
2022-08-11T09:40:57.232Z,25.30
2022-08-11T09:43:51.656Z,25.22
2022-08-11T09:46:41.369Z,24.90
2022-08-11T09:49:16.713Z,25.67
2022-08-11T09:52:02.216Z,25.25
2022-08-11T09:54:41.840Z,25.95
2022-08-11T09:57:41.704Z,26.29
2022-08-11T10:00:19.388Z,25.88
2022-08-11T10:03:07.442Z,26.13
2022-08-11T10:06:07.684Z,25.57
2022-08-11T10:08:44.744Z,25.68
2022-08-11T10:11:17.805Z,25.61
2022-08-11T10:14:32.797Z,25.56
2022-08-11T10:17:06.354Z,24.90
2022-08-11T10:19:40.527Z,25.26
2022-08-11T10:22:28.513Z,25.75
2022-08-11T10:25:22.162Z,25.50
2022-08-11T10:28:28.865Z,25.13
2022-08-11T10:31:13.779Z,25.07
2022-08-11T10:34:13.088Z,25.30
2022-08-11T10:36:51.632Z,25.36
2022-08-11T10:39:24.759Z,25.27
2022-08-11T10:42:30.077Z,25.36
2022-08-11T10:45:29.771Z,25.41
2022-08-11T10:48:00.152Z,25.57
2022-08-11T10:50:49.300Z,25.47
2022-08-11T10:53:40.844Z,25.14
2022-08-11T10:56:29.263Z,25.81
2022-08-11T10:59:07.622Z,26.25
2022-08-11T11:01:44.449Z,26.36
2022-08-11T11:04:18.874Z,26.05
2022-08-11T11:06:57.934Z,25.74
2022-08-11T11:09:32.831Z,25.58
2022-08-11T11:12:40.877Z,25.49
2022-08-11T11:15:31.842Z,25.45
2022-08-11T11:18:07.914Z,25.15
2022-08-11T11:20:47.112Z,25.31
2022-08-11T11:23:26.182Z,25.04
2022-08-11T11:26:39.183Z,24.92
2022-08-11T11:29:35.414Z,24.89
2022-08-11T11:32:20.442Z,24.90
2022-08-11T11:35:24.227Z,24.62
2022-08-11T11:38:04.924Z,24.77
2022-08-11T11:40:47.313Z,24.48
2022-08-11T11:43:24.023Z,24.66
2022-08-11T11:45:54.558Z,24.81
2022-08-11T11:48:29.433Z,25.20
2022-08-11T11:51:02.170Z,25.05
2022-08-11T11:53:33.582Z,24.80
2022-08-11T11:56:05.264Z,24.79
2022-08-11T11:58:56.593Z,24.85
2022-08-11T12:01:28.949Z,24.73
2022-08-11T12:04:01.036Z,24.62
2022-08-11T12:06:32.175Z,24.91
2022-08-11T12:09:04.961Z,25.03
2022-08-11T12:11:53.454Z,25.06
2022-08-11T12:14:28.900Z,25.04
2022-08-11T12:17:00.683Z,25.16
2022-08-11T12:19:35.892Z,25.49
2022-08-11T12:22:30.484Z,25.44
2022-08-11T12:25:19.892Z,25.61
2022-08-11T12:27:51.853Z,25.84
2022-08-11T12:30:24.932Z,26.07
2022-08-11T12:32:55.932Z,25.96
2022-08-11T12:35:27.232Z,26.14
2022-08-11T12:38:04.915Z,26.70
2022-08-11T12:41:16.518Z,27.25
2022-08-11T12:44:07.705Z,27.32
2022-08-11T12:46:44.594Z,27.40
2022-08-11T12:49:36.102Z,27.02
2022-08-11T12:52:13.506Z,26.55
2022-08-11T12:54:53.880Z,26.13
2022-08-11T12:57:48.260Z,26.07
2022-08-11T13:00:37.515Z,25.83
2022-08-11T13:03:29.391Z,25.99
2022-08-11T13:06:04.170Z,26.21
2022-08-11T13:08:46.123Z,26.96
2022-08-11T13:11:56.744Z,26.64
2022-08-11T13:14:29.330Z,26.07
2022-08-11T13:17:19.067Z,26.12
2022-08-11T13:19:53.869Z,26.17
2022-08-11T13:22:26.069Z,25.86
2022-08-11T13:24:58.458Z,26.43
2022-08-11T13:27:30.298Z,26.02
2022-08-11T13:30:28.587Z,25.74
2022-08-11T13:33:00.960Z,26.79
2022-08-11T13:35:34.884Z,26.44
2022-08-11T13:38:19.561Z,26.97
2022-08-11T13:40:59.249Z,26.92
2022-08-11T13:43:31.167Z,27.39
2022-08-11T13:46:15.867Z,27.44
2022-08-11T13:48:47.140Z,28.27
2022-08-11T13:51:35.237Z,27.83
2022-08-11T13:54:09.422Z,28.15
2022-08-11T13:56:44.324Z,27.76
2022-08-11T13:59:17.559Z,27.66
2022-08-11T14:02:19.443Z,28.09
2022-08-11T14:04:51.176Z,27.25
2022-08-11T14:07:25.898Z,26.98
2022-08-11T14:10:01.265Z,27.07
2022-08-11T14:12:51.165Z,27.56
2022-08-11T14:15:26.083Z,26.71
2022-08-11T14:18:03.707Z,27.42
2022-08-11T14:20:56.553Z,26.66
2022-08-11T14:23:37.445Z,26.72
2022-08-11T14:26:32.224Z,26.38
2022-08-11T14:29:07.060Z,26.22
2022-08-11T14:31:40.903Z,26.62
2022-08-11T14:34:15.215Z,26.46
2022-08-11T14:36:47.693Z,26.46
2022-08-11T14:39:24.051Z,26.10
2022-08-11T14:42:17.096Z,26.17
2022-08-11T14:45:08.164Z,25.52
2022-08-11T14:47:41.925Z,24.45
2022-08-11T14:50:23.522Z,24.37
2022-08-11T14:52:56.963Z,24.15
2022-08-11T14:55:48.205Z,24.03
2022-08-11T14:58:22.034Z,23.65
2022-08-11T15:00:56.135Z,23.68
2022-08-11T15:03:28.814Z,23.58
2022-08-11T15:06:02.590Z,23.33
2022-08-11T15:08:54.104Z,23.46
2022-08-11T15:11:48.225Z,23.40
2022-08-11T15:14:41.517Z,23.19
2022-08-11T15:17:13.375Z,23.04
2022-08-11T15:20:06.804Z,23.26
2022-08-11T15:22:55.219Z,23.36
2022-08-11T15:25:26.444Z,23.16
2022-08-11T15:28:17.792Z,23.31
2022-08-11T15:31:06.336Z,23.28
2022-08-11T15:33:58.155Z,23.11
2022-08-11T15:36:48.742Z,23.13
2022-08-11T15:39:25.167Z,23.04
2022-08-11T15:42:18.594Z,22.98
2022-08-11T15:45:14.095Z,22.81
2022-08-11T15:48:02.497Z,22.83
2022-08-11T15:50:41.854Z,22.83
2022-08-11T15:53:19.962Z,22.91
2022-08-11T15:55:51.022Z,22.88
2022-08-11T15:58:39.183Z,22.94
2022-08-11T16:01:31.254Z,22.85
2022-08-11T16:04:15.394Z,22.60
2022-08-11T16:06:55.775Z,22.90
2022-08-11T16:09:46.951Z,22.91
2022-08-11T16:12:22.502Z,22.83
2022-08-11T16:15:13.352Z,22.93
2022-08-11T16:17:46.991Z,23.03
2022-08-11T16:20:21.684Z,22.82
2022-08-11T16:23:02.175Z,22.56
2022-08-11T16:27:06.062Z,22.66
2022-08-11T16:28:31.186Z,22.55
2022-08-11T16:31:09.815Z,22.45
2022-08-11T16:33:51.093Z,22.32
2022-08-11T16:36:39.627Z,22.25
2022-08-11T16:39:11.570Z,22.27
2022-08-11T16:42:01.691Z,22.41
2022-08-11T16:44:51.249Z,22.58
2022-08-11T16:48:32.630Z,22.56
2022-08-11T16:50:21.465Z,22.29
2022-08-11T16:52:52.657Z,22.01
2022-08-11T16:55:51.330Z,22.09
2022-08-11T16:58:34.988Z,21.85
2022-08-11T17:01:05.978Z,21.63
2022-08-11T17:03:55.197Z,21.63
2022-08-11T17:06:45.048Z,21.78
2022-08-11T17:09:38.590Z,21.73
2022-08-11T17:12:29.308Z,21.62
2022-08-11T17:15:03.782Z,21.45
2022-08-11T17:17:38.811Z,21.49
2022-08-11T17:20:40.241Z,21.45
2022-08-11T17:23:27.540Z,21.27
2022-08-11T17:26:03.481Z,21.15
2022-08-11T17:28:37.038Z,20.98
2022-08-11T17:31:25.980Z,20.90
2022-08-11T17:34:17.989Z,20.82
2022-08-11T17:36:49.517Z,20.81
2022-08-11T17:39:23.834Z,20.71
2022-08-11T17:42:12.672Z,20.64
2022-08-11T17:45:01.887Z,20.58
2022-08-11T17:47:51.659Z,20.45
2022-08-11T17:50:23.176Z,20.29
2022-08-11T17:53:10.298Z,20.22
2022-08-11T17:56:01.705Z,20.05
2022-08-11T17:58:49.997Z,20.00
2022-08-11T18:01:22.436Z,19.97
2022-08-11T18:03:58.281Z,19.91
2022-08-11T18:06:34.807Z,19.88
2022-08-11T18:09:27.990Z,19.77
2022-08-11T18:12:19.257Z,19.60
2022-08-11T18:15:09.687Z,19.51
2022-08-11T18:17:59.266Z,19.37
2022-08-11T18:20:48.214Z,19.41
2022-08-11T18:23:41.651Z,19.27
2022-08-11T18:26:38.423Z,19.19
2022-08-11T18:29:41.889Z,19.07
2022-08-11T18:32:49.229Z,19.13
2022-08-11T18:35:42.261Z,19.00
2022-08-11T18:38:34.981Z,18.85
2022-08-11T18:41:26.107Z,18.52
2022-08-11T18:44:19.080Z,18.26
2022-08-11T18:47:14.349Z,17.95
2022-08-11T18:50:05.380Z,17.83
2022-08-11T18:52:55.449Z,17.60
2022-08-11T18:55:44.009Z,17.47
2022-08-11T18:58:34.348Z,17.23
2022-08-11T19:01:24.544Z,17.09
2022-08-11T19:04:17.318Z,17.06
2022-08-11T19:07:18.705Z,16.93
2022-08-11T19:10:10.258Z,16.86
2022-08-11T19:13:01.641Z,16.68
2022-08-11T19:15:50.929Z,16.65
2022-08-11T19:18:41.959Z,16.46
2022-08-11T19:21:31.841Z,16.38
2022-08-11T19:24:22.140Z,16.41
2022-08-11T19:27:12.208Z,16.35
2022-08-11T19:30:12.687Z,16.24
2022-08-11T19:33:02.417Z,16.13
2022-08-11T19:35:52.196Z,15.98
2022-08-11T19:38:41.989Z,15.89
2022-08-11T19:41:52.159Z,15.83
2022-08-11T19:44:40.947Z,15.77
2022-08-11T19:47:30.481Z,15.73
2022-08-11T19:50:24.517Z,15.68
2022-08-11T19:53:17.007Z,15.60
2022-08-11T19:56:09.668Z,15.56
2022-08-11T19:58:57.167Z,15.49
2022-08-11T20:02:01.420Z,15.40
2022-08-11T20:04:53.752Z,15.25
2022-08-11T20:07:43.981Z,15.27
2022-08-11T20:10:35.790Z,15.32
2022-08-11T20:13:27.439Z,14.90
2022-08-11T20:16:16.516Z,15.05
2022-08-11T20:19:06.218Z,15.00
2022-08-11T20:21:57.018Z,14.92
2022-08-11T20:24:46.185Z,14.84
2022-08-11T20:27:35.981Z,14.76
2022-08-11T20:30:26.111Z,14.72
2022-08-11T20:33:13.477Z,14.59
2022-08-11T20:36:01.301Z,14.43
2022-08-11T20:38:52.329Z,14.33
2022-08-11T20:41:58.381Z,14.23
2022-08-11T20:44:48.681Z,14.17
2022-08-11T20:47:56.807Z,14.10
2022-08-11T20:50:47.882Z,14.03
2022-08-11T20:53:39.069Z,14.00
2022-08-11T20:56:30.128Z,13.92
2022-08-11T20:59:21.983Z,13.95
2022-08-11T21:02:12.136Z,13.91
2022-08-11T21:05:01.429Z,13.96
2022-08-11T21:07:56.823Z,13.85
2022-08-11T21:10:50.567Z,13.87
2022-08-11T21:13:43.122Z,13.93
2022-08-11T21:16:38.929Z,13.78
2022-08-11T21:20:00.010Z,13.66
2022-08-11T21:22:59.101Z,13.60
2022-08-11T21:25:59.210Z,13.58
2022-08-11T21:28:49.010Z,13.50
2022-08-11T21:31:37.617Z,13.41
2022-08-11T21:34:27.447Z,13.39
2022-08-11T21:37:15.200Z,13.35
2022-08-11T21:40:06.149Z,13.27
2022-08-11T21:42:56.671Z,13.21
2022-08-11T21:45:46.391Z,13.19
2022-08-11T21:48:34.431Z,13.27
2022-08-11T21:51:22.449Z,13.23
2022-08-11T21:54:11.007Z,13.17
2022-08-11T21:57:01.129Z,13.12
2022-08-11T21:59:57.161Z,13.12
2022-08-11T22:02:49.066Z,13.10
2022-08-11T22:05:41.459Z,13.14
2022-08-11T22:08:29.667Z,13.11
2022-08-11T22:11:31.871Z,12.94
2022-08-11T22:14:22.733Z,12.88
2022-08-11T22:17:10.259Z,12.88
2022-08-11T22:20:00.500Z,12.83
2022-08-11T22:22:52.771Z,12.78
2022-08-11T22:25:51.025Z,12.78
2022-08-11T22:28:38.949Z,12.76
2022-08-11T22:31:29.023Z,12.71
2022-08-11T22:34:16.199Z,12.66
2022-08-11T22:37:05.501Z,12.60
2022-08-11T22:39:58.360Z,12.59
2022-08-11T22:42:50.875Z,12.64
2022-08-11T22:45:38.492Z,12.63
2022-08-11T22:48:29.809Z,12.61
2022-08-11T22:51:18.409Z,12.56
2022-08-11T22:54:07.623Z,12.56
2022-08-11T22:56:55.673Z,12.56
2022-08-11T22:59:44.182Z,12.56
2022-08-11T23:02:32.011Z,12.55
2022-08-11T23:05:21.592Z,12.45
2022-08-11T23:08:09.332Z,12.37
2022-08-11T23:10:58.430Z,12.35
2022-08-11T23:13:47.869Z,12.41
2022-08-11T23:16:37.011Z,12.31
2022-08-11T23:20:03.854Z,12.31
2022-08-11T23:22:37.742Z,12.26
2022-08-11T23:25:37.731Z,12.23
2022-08-11T23:28:27.310Z,12.21
2022-08-11T23:31:17.580Z,12.20
2022-08-11T23:34:10.113Z,12.18
2022-08-11T23:37:18.610Z,12.18
2022-08-11T23:40:07.953Z,12.19
2022-08-11T23:42:59.199Z,12.20
2022-08-11T23:45:46.825Z,12.20
2022-08-11T23:48:35.261Z,12.28
2022-08-11T23:51:23.271Z,12.26
2022-08-11T23:54:11.294Z,12.23
2022-08-11T23:57:00.301Z,12.25
2022-08-11T23:59:47.489Z,12.29
